world map with KCPW marked

KCPW - Weather Station

This information may not be accurate or current and is not valid for navigation or flight planning. No warranty of fitness for any purpose is made or implied.

flag of Coloradoflag of United States

Donate via PayPal

Additional information is available on the NEW Great Circle Mapper

Location
City:  Pagosa Springs, Wolf Creek Pass, Colorado, United States
ICAO:KCPW

Details
Type:Weather Station
Latitude:37°27'05"N (37.451389)
Longitude:106°48'01"W (-106.800277)
Elevation:11759 ft (3584 m)

Weather
METAR:KCPW  041411Z AUTO 18023G32KT OVC001 M07/M07 A2996 RMK AO2 PWINO

Related Locations
Nearby:
Farthest:RRG: 11078 mi / 17828 km
Plaine Corail [Sir Gaėtan Duval Airport (Plaine Corail Airport)], Rodrigues Island, MU

Find:

   beyond  
but within

Other Information
Maps:
Sources:

  


 


Great Circle Mapper   Great Circle Mapper
Great Circle Mapper FAQ   Great Circle Mapper FAQ
  Karl's Home Page
KLS²   KLS² Home
   GC on Facebook
Airlines of the World   Airlines of the World
Donate via PayPal


Copyright © 2004-2019, Karl L. Swartz. All rights reserved.
All trademarks mentioned herein belong to their respective owners.

Please see credits for attribution and copyright information.

Karl Swartz <karl@kls2.com>
  Powered by FreeBSD
Valid HTML 4.01!
Labeled with ICRA
hCard Microformat
Geo Microformat